KAIA/AIA METAR and TAF weather

Enter ICAO airport designator
Station Type Date Time Source
KAIA METAR 2018/10/21 03:53 UTC NOAA

KAIA 210353Z AUTO 17009KT 10SM CLR 07/01 A3023 RMK AO2 SLP234 T00720006


Station Type Date Time Source
KAIA Decoded METAR 2018/10/21 03:53 UTC NOAA

ALLIANCE MUNICIPAL AIRPORT, NE, United States (KAIA) 42-03N 102-48W 1196M
Oct 20, 2018 - 11:53 PM EDT / 2018.10.21 0353 UTC
Wind: from the S (170 degrees) at 10 MPH (9 KT):0
Visibility: 10 mile(s):0
Sky conditions: clear
Temperature: 45.0 F (7.2 C)
Dew Point: 33.1 F (0.6 C)
Relative Humidity: 62%
Pressure (altimeter): 30.23 in. Hg (1023 hPa)
ob: KAIA 210353Z AUTO 17009KT 10SM CLR 07/01 A3023 RMK AO2 SLP234 T00720006
cycle: 4

Station Type Date Time Source
KAIA TAF 2018/10/20 18:42 UTC NOAA

TAF KAIA 201739Z 2018/2118 16006KT P6SM SKC
FM202100 15005KT P6SM SKC
FM211400 26006KT P6SM SKC


Example: see airport list